Arnold Line, Mississippi
Current Conditions -  °F | °C
As of 11:53 AM on Friday 24 Oct 2014 (Local Time) from KHBG Reporting Station
Clear Clear  
Wind Chill: 70°   Ceiling: Unl
Heat Index: 70°   Visibility: 10mi
Dew Point: 49°   Wind: 6mph
Humidity: 47%   Direction: 20°NNE
Pressure: 30.11"   Gusts: NA
Location:  31.1996°N, 89.2694°W
Report Text: KHBG 241653Z AUTO 02005KT 10SM CLR 21/09 A3011 RMK AO2 SLP195 T02110094
Loading
Personal Weather Stations






























Interactive Weather Map
Tropical Storm Tracking
New forecast layout! Learn more

10-Day Weather Forecast

Advertisements
Track Severe Weather on mobile